sensor_id;sensor_type;location;lat;lon;timestamp;temperature;humidity
25504;DHT22;13410;52.114;5.718;2023-08-06T00:00:47;19.60;99.90
25504;DHT22;13410;52.114;5.718;2023-08-06T00:03:12;19.60;99.90
25504;DHT22;13410;52.114;5.718;2023-08-06T00:05:41;19.60;99.90
25504;DHT22;13410;52.114;5.718;2023-08-06T00:08:08;19.60;99.90
25504;DHT22;13410;52.114;5.718;2023-08-06T00:10:34;19.50;99.90
25504;DHT22;13410;52.114;5.718;2023-08-06T00:13:00;19.60;99.90
25504;DHT22;13410;52.114;5.718;2023-08-06T00:15:28;19.70;99.90
25504;DHT22;13410;52.114;5.718;2023-08-06T00:17:59;19.60;99.90
25504;DHT22;13410;52.114;5.718;2023-08-06T00:20:25;19.60;99.90
25504;DHT22;13410;52.114;5.718;2023-08-06T00:22:51;19.60;99.90
25504;DHT22;13410;52.114;5.718;2023-08-06T00:25:16;19.60;99.90
25504;DHT22;13410;52.114;5.718;2023-08-06T00:27:42;19.50;99.90
25504;DHT22;13410;52.114;5.718;2023-08-06T00:30:08;19.40;99.90
25504;DHT22;13410;52.114;5.718;2023-08-06T00:32:34;19.30;99.90
25504;DHT22;13410;52.114;5.718;2023-08-06T00:34:59;19.70;99.90
25504;DHT22;13410;52.114;5.718;2023-08-06T00:37:25;19.60;99.90
25504;DHT22;13410;52.114;5.718;2023-08-06T00:39:53;19.90;99.90
25504;DHT22;13410;52.114;5.718;2023-08-06T00:42:19;19.90;99.90
25504;DHT22;13410;52.114;5.718;2023-08-06T00:44:48;19.70;99.90
25504;DHT22;13410;52.114;5.718;2023-08-06T00:47:14;19.70;99.90
25504;DHT22;13410;52.114;5.718;2023-08-06T00:49:40;19.60;99.90
25504;DHT22;13410;52.114;5.718;2023-08-06T00:52:07;19.60;99.90
25504;DHT22;13410;52.114;5.718;2023-08-06T00:54:34;19.50;99.90
25504;DHT22;13410;52.114;5.718;2023-08-06T00:57:01;19.50;99.90
25504;DHT22;13410;52.114;5.718;2023-08-06T00:59:30;19.30;99.90
25504;DHT22;13410;52.114;5.718;2023-08-06T01:01:56;19.30;99.90
25504;DHT22;13410;52.114;5.718;2023-08-06T01:04:23;19.30;99.90
25504;DHT22;13410;52.114;5.718;2023-08-06T01:06:56;19.30;99.90
25504;DHT22;13410;52.114;5.718;2023-08-06T01:09:45;19.50;99.90
25504;DHT22;13410;52.114;5.718;2023-08-06T01:12:32;19.40;99.90
25504;DHT22;13410;52.114;5.718;2023-08-06T01:17:32;19.50;99.90
25504;DHT22;13410;52.114;5.718;2023-08-06T01:19:58;19.50;99.90
25504;DHT22;13410;52.114;5.718;2023-08-06T01:22:24;19.60;99.90
25504;DHT22;13410;52.114;5.718;2023-08-06T01:24:51;19.50;99.90
25504;DHT22;13410;52.114;5.718;2023-08-06T01:27:28;19.40;99.90
25504;DHT22;13410;52.114;5.718;2023-08-06T01:30:29;19.50;99.90
25504;DHT22;13410;52.114;5.718;2023-08-06T01:33:04;19.50;99.90
25504;DHT22;13410;52.114;5.718;2023-08-06T01:35:35;19.30;99.90
25504;DHT22;13410;52.114;5.718;2023-08-06T01:38:02;19.10;99.90
25504;DHT22;13410;52.114;5.718;2023-08-06T01:40:43;19.10;99.90
25504;DHT22;13410;52.114;5.718;2023-08-06T01:43:15;19.30;99.90
25504;DHT22;13410;52.114;5.718;2023-08-06T01:45:44;19.30;99.90
25504;DHT22;13410;52.114;5.718;2023-08-06T01:48:18;19.30;99.90
25504;DHT22;13410;52.114;5.718;2023-08-06T01:50:44;19.40;99.90
25504;DHT22;13410;52.114;5.718;2023-08-06T01:53:20;19.30;99.90
25504;DHT22;13410;52.114;5.718;2023-08-06T01:55:52;19.20;99.90
25504;DHT22;13410;52.114;5.718;2023-08-06T01:58:18;19.40;99.90
25504;DHT22;13410;52.114;5.718;2023-08-06T02:00:46;19.40;99.90
25504;DHT22;13410;52.114;5.718;2023-08-06T02:03:11;19.40;99.90
25504;DHT22;13410;52.114;5.718;2023-08-06T02:05:37;19.40;99.90
25504;DHT22;13410;52.114;5.718;2023-08-06T02:08:06;19.40;99.90
25504;DHT22;13410;52.114;5.718;2023-08-06T02:10:55;19.50;99.90
25504;DHT22;13410;52.114;5.718;2023-08-06T02:13:21;19.60;99.90
25504;DHT22;13410;52.114;5.718;2023-08-06T02:15:55;19.50;99.90
25504;DHT22;13410;52.114;5.718;2023-08-06T02:18:31;19.60;99.90
25504;DHT22;13410;52.114;5.718;2023-08-06T02:20:58;19.50;99.90
25504;DHT22;13410;52.114;5.718;2023-08-06T02:23:24;19.50;99.90
25504;DHT22;13410;52.114;5.718;2023-08-06T02:26:00;19.40;99.90
25504;DHT22;13410;52.114;5.718;2023-08-06T02:28:26;19.60;99.90
25504;DHT22;13410;52.114;5.718;2023-08-06T02:30:52;19.50;99.90
25504;DHT22;13410;52.114;5.718;2023-08-06T02:33:20;19.40;99.90
25504;DHT22;13410;52.114;5.718;2023-08-06T02:35:46;19.60;99.90
25504;DHT22;13410;52.114;5.718;2023-08-06T02:38:18;19.60;99.90
25504;DHT22;13410;52.114;5.718;2023-08-06T02:40:46;19.70;99.90
25504;DHT22;13410;52.114;5.718;2023-08-06T02:43:15;19.50;99.90
25504;DHT22;13410;52.114;5.718;2023-08-06T02:45:44;19.50;99.90
25504;DHT22;13410;52.114;5.718;2023-08-06T02:48:12;19.50;99.90
25504;DHT22;13410;52.114;5.718;2023-08-06T02:50:39;19.40;99.90
25504;DHT22;13410;52.114;5.718;2023-08-06T02:53:13;19.50;99.90
25504;DHT22;13410;52.114;5.718;2023-08-06T02:55:47;19.50;99.90
25504;DHT22;13410;52.114;5.718;2023-08-06T02:58:15;19.60;99.90
25504;DHT22;13410;52.114;5.718;2023-08-06T03:00:45;19.70;99.90
25504;DHT22;13410;52.114;5.718;2023-08-06T03:03:31;19.60;99.90
25504;DHT22;13410;52.114;5.718;2023-08-06T03:06:09;19.60;99.90
25504;DHT22;13410;52.114;5.718;2023-08-06T03:08:48;19.50;99.90
25504;DHT22;13410;52.114;5.718;2023-08-06T03:11:14;19.60;99.90
25504;DHT22;13410;52.114;5.718;2023-08-06T03:13:43;19.50;99.90
25504;DHT22;13410;52.114;5.718;2023-08-06T03:16:11;19.70;99.90
25504;DHT22;13410;52.114;5.718;2023-08-06T03:18:43;19.60;99.90
25504;DHT22;13410;52.114;5.718;2023-08-06T03:21:17;19.60;99.90
25504;DHT22;13410;52.114;5.718;2023-08-06T03:23:47;19.60;99.90
25504;DHT22;13410;52.114;5.718;2023-08-06T03:26:17;19.60;99.90
25504;DHT22;13410;52.114;5.718;2023-08-06T03:28:45;19.60;99.90
25504;DHT22;13410;52.114;5.718;2023-08-06T03:31:11;19.70;99.90
25504;DHT22;13410;52.114;5.718;2023-08-06T03:33:37;19.60;99.90
25504;DHT22;13410;52.114;5.718;2023-08-06T03:36:03;19.60;99.90
25504;DHT22;13410;52.114;5.718;2023-08-06T03:38:47;19.60;99.90
25504;DHT22;13410;52.114;5.718;2023-08-06T03:41:24;19.70;99.90
25504;DHT22;13410;52.114;5.718;2023-08-06T03:43:56;19.70;99.90
25504;DHT22;13410;52.114;5.718;2023-08-06T03:46:48;19.80;99.90
25504;DHT22;13410;52.114;5.718;2023-08-06T03:49:41;19.80;99.90
25504;DHT22;13410;52.114;5.718;2023-08-06T03:52:18;19.80;99.90
25504;DHT22;13410;52.114;5.718;2023-08-06T03:54:46;19.90;99.90
25504;DHT22;13410;52.114;5.718;2023-08-06T03:57:14;19.90;99.90
25504;DHT22;13410;52.114;5.718;2023-08-06T03:59:40;19.90;99.90
25504;DHT22;13410;52.114;5.718;2023-08-06T04:02:06;19.80;99.90
25504;DHT22;13410;52.114;5.718;2023-08-06T04:04:31;19.70;99.90
25504;DHT22;13410;52.114;5.718;2023-08-06T04:07:00;19.80;99.90
25504;DHT22;13410;52.114;5.718;2023-08-06T04:09:31;19.90;99.90
25504;DHT22;13410;52.114;5.718;2023-08-06T04:11:59;19.80;99.90
25504;DHT22;13410;52.114;5.718;2023-08-06T04:14:27;19.90;99.90
25504;DHT22;13410;52.114;5.718;2023-08-06T04:16:53;19.70;99.90
25504;DHT22;13410;52.114;5.718;2023-08-06T04:19:31;19.70;99.90
25504;DHT22;13410;52.114;5.718;2023-08-06T04:21:59;19.70;99.90
25504;DHT22;13410;52.114;5.718;2023-08-06T04:24:25;19.50;99.90
25504;DHT22;13410;52.114;5.718;2023-08-06T04:26:54;19.50;99.90
25504;DHT22;13410;52.114;5.718;2023-08-06T04:29:19;19.70;99.90
25504;DHT22;13410;52.114;5.718;2023-08-06T04:31:45;19.40;99.90
25504;DHT22;13410;52.114;5.718;2023-08-06T04:34:11;19.50;99.90
25504;DHT22;13410;52.114;5.718;2023-08-06T04:36:39;19.50;99.90
25504;DHT22;13410;52.114;5.718;2023-08-06T04:39:08;19.30;99.90
25504;DHT22;13410;52.114;5.718;2023-08-06T04:41:36;19.20;99.90
25504;DHT22;13410;52.114;5.718;2023-08-06T04:44:02;19.30;99.90
25504;DHT22;13410;52.114;5.718;2023-08-06T04:46:29;19.20;99.90
25504;DHT22;13410;52.114;5.718;2023-08-06T04:48:54;19.30;99.90
25504;DHT22;13410;52.114;5.718;2023-08-06T04:51:20;19.60;99.90
25504;DHT22;13410;52.114;5.718;2023-08-06T04:53:46;19.50;99.90
25504;DHT22;13410;52.114;5.718;2023-08-06T04:56:11;19.80;99.90
25504;DHT22;13410;52.114;5.718;2023-08-06T04:58:37;19.80;99.90
25504;DHT22;13410;52.114;5.718;2023-08-06T05:01:03;19.70;99.90
25504;DHT22;13410;52.114;5.718;2023-08-06T05:03:34;19.60;99.90
25504;DHT22;13410;52.114;5.718;2023-08-06T05:06:00;19.50;99.90
25504;DHT22;13410;52.114;5.718;2023-08-06T05:08:31;19.80;99.90
25504;DHT22;13410;52.114;5.718;2023-08-06T05:10:57;19.60;99.90
25504;DHT22;13410;52.114;5.718;2023-08-06T05:13:22;19.60;99.90
25504;DHT22;13410;52.114;5.718;2023-08-06T05:15:53;19.40;99.90
25504;DHT22;13410;52.114;5.718;2023-08-06T05:18:19;19.50;99.90
25504;DHT22;13410;52.114;5.718;2023-08-06T05:20:45;19.60;99.90
25504;DHT22;13410;52.114;5.718;2023-08-06T05:23:11;20.00;99.90
25504;DHT22;13410;52.114;5.718;2023-08-06T05:25:37;19.70;99.90
25504;DHT22;13410;52.114;5.718;2023-08-06T05:28:04;20.00;99.90
25504;DHT22;13410;52.114;5.718;2023-08-06T05:30:30;19.90;99.90
25504;DHT22;13410;52.114;5.718;2023-08-06T05:33:01;19.80;99.90
25504;DHT22;13410;52.114;5.718;2023-08-06T05:35:29;19.70;99.90
25504;DHT22;13410;52.114;5.718;2023-08-06T05:37:55;20.00;99.90
25504;DHT22;13410;52.114;5.718;2023-08-06T05:40:21;20.10;99.90
25504;DHT22;13410;52.114;5.718;2023-08-06T05:42:47;20.00;99.90
25504;DHT22;13410;52.114;5.718;2023-08-06T05:45:16;20.00;99.90
25504;DHT22;13410;52.114;5.718;2023-08-06T05:47:46;20.00;99.90
25504;DHT22;13410;52.114;5.718;2023-08-06T05:50:20;20.00;99.90
25504;DHT22;13410;52.114;5.718;2023-08-06T05:52:46;20.20;99.90
25504;DHT22;13410;52.114;5.718;2023-08-06T05:55:12;20.20;99.90
25504;DHT22;13410;52.114;5.718;2023-08-06T05:57:38;20.30;99.90
25504;DHT22;13410;52.114;5.718;2023-08-06T06:00:09;20.30;99.90
25504;DHT22;13410;52.114;5.718;2023-08-06T06:02:35;20.30;99.90
25504;DHT22;13410;52.114;5.718;2023-08-06T06:05:04;20.40;99.90
25504;DHT22;13410;52.114;5.718;2023-08-06T06:07:30;20.30;99.90
25504;DHT22;13410;52.114;5.718;2023-08-06T06:09:55;20.10;99.90
25504;DHT22;13410;52.114;5.718;2023-08-06T06:12:24;20.00;99.90
25504;DHT22;13410;52.114;5.718;2023-08-06T06:14:51;20.10;99.90
25504;DHT22;13410;52.114;5.718;2023-08-06T06:17:16;20.30;99.90
25504;DHT22;13410;52.114;5.718;2023-08-06T06:19:45;20.70;99.90
25504;DHT22;13410;52.114;5.718;2023-08-06T06:22:10;20.90;99.90
25504;DHT22;13410;52.114;5.718;2023-08-06T06:24:36;20.80;99.90
25504;DHT22;13410;52.114;5.718;2023-08-06T06:27:02;20.70;99.90
25504;DHT22;13410;52.114;5.718;2023-08-06T06:29:28;20.60;99.90
25504;DHT22;13410;52.114;5.718;2023-08-06T06:31:53;20.30;99.90
25504;DHT22;13410;52.114;5.718;2023-08-06T06:34:19;20.30;99.90
25504;DHT22;13410;52.114;5.718;2023-08-06T06:36:48;20.60;99.90
25504;DHT22;13410;52.114;5.718;2023-08-06T06:39:15;20.40;99.90
25504;DHT22;13410;52.114;5.718;2023-08-06T06:41:41;20.50;99.90
25504;DHT22;13410;52.114;5.718;2023-08-06T06:44:09;20.60;99.90
25504;DHT22;13410;52.114;5.718;2023-08-06T06:46:34;20.90;99.90
25504;DHT22;13410;52.114;5.718;2023-08-06T06:49:00;20.80;99.90
25504;DHT22;13410;52.114;5.718;2023-08-06T06:51:26;21.10;99.90
25504;DHT22;13410;52.114;5.718;2023-08-06T06:53:57;21.10;99.90
25504;DHT22;13410;52.114;5.718;2023-08-06T06:56:23;21.10;99.90
25504;DHT22;13410;52.114;5.718;2023-08-06T06:58:48;21.20;99.90
25504;DHT22;13410;52.114;5.718;2023-08-06T07:01:14;21.00;99.90
25504;DHT22;13410;52.114;5.718;2023-08-06T07:03:40;21.10;99.90
25504;DHT22;13410;52.114;5.718;2023-08-06T07:06:06;21.50;99.90
25504;DHT22;13410;52.114;5.718;2023-08-06T07:08:35;21.90;99.90
25504;DHT22;13410;52.114;5.718;2023-08-06T07:11:07;21.80;99.90
25504;DHT22;13410;52.114;5.718;2023-08-06T07:13:39;21.80;99.90
25504;DHT22;13410;52.114;5.718;2023-08-06T07:16:05;21.80;99.90
25504;DHT22;13410;52.114;5.718;2023-08-06T07:18:31;21.80;99.90
25504;DHT22;13410;52.114;5.718;2023-08-06T07:20:58;21.80;99.90
25504;DHT22;13410;52.114;5.718;2023-08-06T07:23:25;21.70;99.90
25504;DHT22;13410;52.114;5.718;2023-08-06T07:25:51;21.50;99.90
25504;DHT22;13410;52.114;5.718;2023-08-06T07:28:17;21.50;99.90
25504;DHT22;13410;52.114;5.718;2023-08-06T07:30:44;21.60;99.90
25504;DHT22;13410;52.114;5.718;2023-08-06T07:33:13;21.80;99.90
25504;DHT22;13410;52.114;5.718;2023-08-06T07:35:39;21.70;99.90
25504;DHT22;13410;52.114;5.718;2023-08-06T07:38:04;21.60;99.90
25504;DHT22;13410;52.114;5.718;2023-08-06T07:40:30;21.60;99.90
25504;DHT22;13410;52.114;5.718;2023-08-06T07:42:59;21.70;99.90
25504;DHT22;13410;52.114;5.718;2023-08-06T07:45:25;21.70;99.90
25504;DHT22;13410;52.114;5.718;2023-08-06T07:47:52;21.60;99.90
25504;DHT22;13410;52.114;5.718;2023-08-06T07:50:18;21.70;99.90
25504;DHT22;13410;52.114;5.718;2023-08-06T07:52:47;21.50;99.90
25504;DHT22;13410;52.114;5.718;2023-08-06T07:55:15;21.10;99.90
25504;DHT22;13410;52.114;5.718;2023-08-06T07:57:41;21.10;99.90
25504;DHT22;13410;52.114;5.718;2023-08-06T08:00:07;21.40;99.90
25504;DHT22;13410;52.114;5.718;2023-08-06T08:02:33;21.40;99.90
25504;DHT22;13410;52.114;5.718;2023-08-06T08:05:01;21.40;99.90
25504;DHT22;13410;52.114;5.718;2023-08-06T08:07:27;21.30;99.90
25504;DHT22;13410;52.114;5.718;2023-08-06T08:09:56;21.20;99.90
25504;DHT22;13410;52.114;5.718;2023-08-06T08:12:22;21.10;99.90
25504;DHT22;13410;52.114;5.718;2023-08-06T08:14:48;21.10;99.90
25504;DHT22;13410;52.114;5.718;2023-08-06T08:17:14;21.10;99.90
25504;DHT22;13410;52.114;5.718;2023-08-06T08:19:40;21.20;99.90
25504;DHT22;13410;52.114;5.718;2023-08-06T08:22:06;21.10;99.90
25504;DHT22;13410;52.114;5.718;2023-08-06T08:24:35;20.90;99.90
25504;DHT22;13410;52.114;5.718;2023-08-06T08:27:00;21.10;99.90
25504;DHT22;13410;52.114;5.718;2023-08-06T08:29:28;21.30;99.90
25504;DHT22;13410;52.114;5.718;2023-08-06T08:31:54;21.60;99.90
25504;DHT22;13410;52.114;5.718;2023-08-06T08:34:20;21.80;99.90
25504;DHT22;13410;52.114;5.718;2023-08-06T08:36:46;21.40;99.90
25504;DHT22;13410;52.114;5.718;2023-08-06T08:39:13;21.20;99.90
25504;DHT22;13410;52.114;5.718;2023-08-06T08:41:39;21.40;99.90
25504;DHT22;13410;52.114;5.718;2023-08-06T08:44:09;21.70;99.90
25504;DHT22;13410;52.114;5.718;2023-08-06T08:46:36;21.90;99.90
25504;DHT22;13410;52.114;5.718;2023-08-06T08:49:04;21.50;99.90
25504;DHT22;13410;52.114;5.718;2023-08-06T08:51:34;21.30;99.90
25504;DHT22;13410;52.114;5.718;2023-08-06T08:54:03;21.40;99.90
25504;DHT22;13410;52.114;5.718;2023-08-06T08:56:29;21.50;99.90
25504;DHT22;13410;52.114;5.718;2023-08-06T08:58:55;21.40;99.90
25504;DHT22;13410;52.114;5.718;2023-08-06T09:01:24;21.30;99.90
25504;DHT22;13410;52.114;5.718;2023-08-06T09:03:53;20.90;99.90
25504;DHT22;13410;52.114;5.718;2023-08-06T09:06:20;20.40;99.90
25504;DHT22;13410;52.114;5.718;2023-08-06T09:09:01;20.10;99.90
25504;DHT22;13410;52.114;5.718;2023-08-06T09:11:39;20.20;99.90
25504;DHT22;13410;52.114;5.718;2023-08-06T09:14:08;20.10;99.90
25504;DHT22;13410;52.114;5.718;2023-08-06T09:16:37;20.10;99.90
25504;DHT22;13410;52.114;5.718;2023-08-06T09:19:11;20.20;99.90
25504;DHT22;13410;52.114;5.718;2023-08-06T09:21:45;20.60;99.90
25504;DHT22;13410;52.114;5.718;2023-08-06T09:24:15;20.60;99.90
25504;DHT22;13410;52.114;5.718;2023-08-06T09:26:43;20.80;99.90
25504;DHT22;13410;52.114;5.718;2023-08-06T09:29:10;21.30;99.90
25504;DHT22;13410;52.114;5.718;2023-08-06T09:31:47;21.60;99.90
25504;DHT22;13410;52.114;5.718;2023-08-06T09:34:18;21.90;99.90
25504;DHT22;13410;52.114;5.718;2023-08-06T09:36:54;21.80;99.90
25504;DHT22;13410;52.114;5.718;2023-08-06T09:39:21;21.60;99.90
25504;DHT22;13410;52.114;5.718;2023-08-06T09:41:48;21.50;99.90
25504;DHT22;13410;52.114;5.718;2023-08-06T09:44:18;21.20;99.90
25504;DHT22;13410;52.114;5.718;2023-08-06T09:46:51;21.50;99.90
25504;DHT22;13410;52.114;5.718;2023-08-06T09:49:41;21.30;99.90
25504;DHT22;13410;52.114;5.718;2023-08-06T09:52:27;21.10;99.90
25504;DHT22;13410;52.114;5.718;2023-08-06T09:54:57;21.40;99.90
25504;DHT22;13410;52.114;5.718;2023-08-06T09:57:23;21.40;99.90
25504;DHT22;13410;52.114;5.718;2023-08-06T09:59:51;21.60;99.90
25504;DHT22;13410;52.114;5.718;2023-08-06T10:02:18;21.50;99.90
25504;DHT22;13410;52.114;5.718;2023-08-06T10:04:47;21.60;99.90
25504;DHT22;13410;52.114;5.718;2023-08-06T10:07:13;21.40;99.90
25504;DHT22;13410;52.114;5.718;2023-08-06T10:09:45;21.20;99.90
25504;DHT22;13410;52.114;5.718;2023-08-06T10:12:11;21.10;99.90
25504;DHT22;13410;52.114;5.718;2023-08-06T10:14:37;20.60;99.90
25504;DHT22;13410;52.114;5.718;2023-08-06T10:17:08;20.50;99.90
25504;DHT22;13410;52.114;5.718;2023-08-06T10:19:34;20.00;99.90
25504;DHT22;13410;52.114;5.718;2023-08-06T10:22:18;20.00;99.90
25504;DHT22;13410;52.114;5.718;2023-08-06T10:24:57;19.90;99.90
25504;DHT22;13410;52.114;5.718;2023-08-06T10:27:53;19.80;99.90
25504;DHT22;13410;52.114;5.718;2023-08-06T10:30:30;19.90;99.90
25504;DHT22;13410;52.114;5.718;2023-08-06T10:33:05;20.10;99.90
25504;DHT22;13410;52.114;5.718;2023-08-06T10:35:38;20.20;99.90
25504;DHT22;13410;52.114;5.718;2023-08-06T10:38:13;20.20;99.90
25504;DHT22;13410;52.114;5.718;2023-08-06T10:40:41;20.10;99.90
25504;DHT22;13410;52.114;5.718;2023-08-06T10:43:26;20.00;99.90
25504;DHT22;13410;52.114;5.718;2023-08-06T10:45:58;20.00;99.90
25504;DHT22;13410;52.114;5.718;2023-08-06T10:48:45;20.10;99.90
25504;DHT22;13410;52.114;5.718;2023-08-06T10:51:12;20.20;99.90
25504;DHT22;13410;52.114;5.718;2023-08-06T10:53:50;20.00;99.90
25504;DHT22;13410;52.114;5.718;2023-08-06T10:56:23;19.40;99.90
25504;DHT22;13410;52.114;5.718;2023-08-06T10:58:52;19.20;99.90
25504;DHT22;13410;52.114;5.718;2023-08-06T11:01:18;19.10;99.90
25504;DHT22;13410;52.114;5.718;2023-08-06T11:03:46;19.00;99.90
25504;DHT22;13410;52.114;5.718;2023-08-06T11:06:21;19.10;99.90
25504;DHT22;13410;52.114;5.718;2023-08-06T11:08:55;19.00;99.90
25504;DHT22;13410;52.114;5.718;2023-08-06T11:11:22;18.90;99.90
25504;DHT22;13410;52.114;5.718;2023-08-06T11:13:52;19.10;99.90
25504;DHT22;13410;52.114;5.718;2023-08-06T11:16:27;19.00;99.90
25504;DHT22;13410;52.114;5.718;2023-08-06T11:19:01;18.70;99.90
25504;DHT22;13410;52.114;5.718;2023-08-06T11:21:30;18.50;99.90
25504;DHT22;13410;52.114;5.718;2023-08-06T11:23:56;18.30;99.90
25504;DHT22;13410;52.114;5.718;2023-08-06T11:26:22;18.20;99.90
25504;DHT22;13410;52.114;5.718;2023-08-06T11:28:49;17.90;99.90
25504;DHT22;13410;52.114;5.718;2023-08-06T11:31:24;17.50;99.90
25504;DHT22;13410;52.114;5.718;2023-08-06T11:33:55;17.40;99.90
25504;DHT22;13410;52.114;5.718;2023-08-06T11:36:36;17.20;99.90
25504;DHT22;13410;52.114;5.718;2023-08-06T11:39:09;17.30;99.90
25504;DHT22;13410;52.114;5.718;2023-08-06T11:41:36;17.40;99.90
25504;DHT22;13410;52.114;5.718;2023-08-06T11:44:06;17.70;99.90
25504;DHT22;13410;52.114;5.718;2023-08-06T11:47:00;17.80;99.90
25504;DHT22;13410;52.114;5.718;2023-08-06T11:49:41;17.50;99.90
25504;DHT22;13410;52.114;5.718;2023-08-06T11:52:20;17.50;99.90
25504;DHT22;13410;52.114;5.718;2023-08-06T11:55:07;17.70;99.90
25504;DHT22;13410;52.114;5.718;2023-08-06T11:57:44;17.90;99.90
25504;DHT22;13410;52.114;5.718;2023-08-06T12:00:15;18.00;99.90
25504;DHT22;13410;52.114;5.718;2023-08-06T12:02:45;17.80;99.90
25504;DHT22;13410;52.114;5.718;2023-08-06T12:05:12;17.80;99.90
25504;DHT22;13410;52.114;5.718;2023-08-06T12:07:52;18.20;99.90
25504;DHT22;13410;52.114;5.718;2023-08-06T12:10:19;18.30;99.90
25504;DHT22;13410;52.114;5.718;2023-08-06T12:12:46;18.50;99.90
25504;DHT22;13410;52.114;5.718;2023-08-06T12:15:14;18.70;99.90
25504;DHT22;13410;52.114;5.718;2023-08-06T12:17:45;18.80;99.90
25504;DHT22;13410;52.114;5.718;2023-08-06T12:20:11;19.00;99.90
25504;DHT22;13410;52.114;5.718;2023-08-06T12:22:37;19.10;99.90
25504;DHT22;13410;52.114;5.718;2023-08-06T12:25:06;19.10;99.90
25504;DHT22;13410;52.114;5.718;2023-08-06T12:27:41;19.00;99.90
25504;DHT22;13410;52.114;5.718;2023-08-06T12:30:07;18.80;99.90
25504;DHT22;13410;52.114;5.718;2023-08-06T12:32:37;18.90;99.90
25504;DHT22;13410;52.114;5.718;2023-08-06T12:35:06;19.00;99.90
25504;DHT22;13410;52.114;5.718;2023-08-06T12:37:35;18.70;99.90
25504;DHT22;13410;52.114;5.718;2023-08-06T12:40:01;18.90;99.90
25504;DHT22;13410;52.114;5.718;2023-08-06T12:42:30;18.90;99.90
25504;DHT22;13410;52.114;5.718;2023-08-06T12:44:58;18.80;99.90
25504;DHT22;13410;52.114;5.718;2023-08-06T12:47:27;19.10;99.90
25504;DHT22;13410;52.114;5.718;2023-08-06T12:50:08;19.10;99.90
25504;DHT22;13410;52.114;5.718;2023-08-06T12:52:36;19.30;99.90
25504;DHT22;13410;52.114;5.718;2023-08-06T12:55:02;19.30;99.90
25504;DHT22;13410;52.114;5.718;2023-08-06T12:57:41;19.30;99.90
25504;DHT22;13410;52.114;5.718;2023-08-06T13:00:15;19.30;99.90
25504;DHT22;13410;52.114;5.718;2023-08-06T13:02:49;19.00;99.90
25504;DHT22;13410;52.114;5.718;2023-08-06T13:05:22;18.90;99.90
25504;DHT22;13410;52.114;5.718;2023-08-06T13:07:55;19.00;99.90
25504;DHT22;13410;52.114;5.718;2023-08-06T13:10:24;19.30;99.90
25504;DHT22;13410;52.114;5.718;2023-08-06T13:12:56;19.30;99.90
25504;DHT22;13410;52.114;5.718;2023-08-06T13:18:16;19.30;99.90
25504;DHT22;13410;52.114;5.718;2023-08-06T13:20:44;18.70;99.90
25504;DHT22;13410;52.114;5.718;2023-08-06T13:23:17;18.30;99.90
25504;DHT22;13410;52.114;5.718;2023-08-06T13:25:51;18.40;99.90
25504;DHT22;13410;52.114;5.718;2023-08-06T13:28:19;18.30;99.90
25504;DHT22;13410;52.114;5.718;2023-08-06T13:30:45;18.60;99.90
25504;DHT22;13410;52.114;5.718;2023-08-06T13:33:11;18.80;99.90
25504;DHT22;13410;52.114;5.718;2023-08-06T13:35:51;18.90;99.90
25504;DHT22;13410;52.114;5.718;2023-08-06T13:38:27;18.60;99.90
25504;DHT22;13410;52.114;5.718;2023-08-06T13:40:55;18.40;99.90
25504;DHT22;13410;52.114;5.718;2023-08-06T13:43:24;18.40;99.90
25504;DHT22;13410;52.114;5.718;2023-08-06T13:45:53;18.40;99.90
25504;DHT22;13410;52.114;5.718;2023-08-06T13:48:26;18.70;99.90
25504;DHT22;13410;52.114;5.718;2023-08-06T13:50:55;18.70;99.90
25504;DHT22;13410;52.114;5.718;2023-08-06T13:53:21;18.80;99.90
25504;DHT22;13410;52.114;5.718;2023-08-06T13:56:07;18.70;99.90
25504;DHT22;13410;52.114;5.718;2023-08-06T13:58:38;18.90;99.90
25504;DHT22;13410;52.114;5.718;2023-08-06T14:01:04;19.00;99.90
25504;DHT22;13410;52.114;5.718;2023-08-06T14:03:39;19.20;99.90
25504;DHT22;13410;52.114;5.718;2023-08-06T14:06:10;19.10;99.90
25504;DHT22;13410;52.114;5.718;2023-08-06T14:08:36;19.10;99.90
25504;DHT22;13410;52.114;5.718;2023-08-06T14:11:05;19.30;99.90
25504;DHT22;13410;52.114;5.718;2023-08-06T14:13:31;19.50;99.90
25504;DHT22;13410;52.114;5.718;2023-08-06T14:15:59;19.60;99.90
25504;DHT22;13410;52.114;5.718;2023-08-06T14:18:28;19.80;99.90
25504;DHT22;13410;52.114;5.718;2023-08-06T14:20:54;19.70;99.90
25504;DHT22;13410;52.114;5.718;2023-08-06T14:23:20;19.60;99.90
25504;DHT22;13410;52.114;5.718;2023-08-06T14:25:46;19.70;99.90
25504;DHT22;13410;52.114;5.718;2023-08-06T14:28:12;19.70;99.90
25504;DHT22;13410;52.114;5.718;2023-08-06T14:30:38;19.70;99.90
25504;DHT22;13410;52.114;5.718;2023-08-06T14:33:06;19.90;99.90
25504;DHT22;13410;52.114;5.718;2023-08-06T14:35:38;20.00;99.90
25504;DHT22;13410;52.114;5.718;2023-08-06T14:38:17;20.30;99.90
25504;DHT22;13410;52.114;5.718;2023-08-06T14:41:00;20.30;99.90
25504;DHT22;13410;52.114;5.718;2023-08-06T14:43:55;20.40;99.90
25504;DHT22;13410;52.114;5.718;2023-08-06T14:46:41;20.60;99.90
25504;DHT22;13410;52.114;5.718;2023-08-06T14:49:07;20.50;99.90
25504;DHT22;13410;52.114;5.718;2023-08-06T14:51:58;20.60;99.90
25504;DHT22;13410;52.114;5.718;2023-08-06T14:54:26;20.70;99.90
25504;DHT22;13410;52.114;5.718;2023-08-06T14:56:57;20.80;99.90
25504;DHT22;13410;52.114;5.718;2023-08-06T14:59:25;20.70;99.90
25504;DHT22;13410;52.114;5.718;2023-08-06T15:01:57;20.70;99.90
25504;DHT22;13410;52.114;5.718;2023-08-06T15:04:32;20.70;99.90
25504;DHT22;13410;52.114;5.718;2023-08-06T15:06:58;20.80;99.90
25504;DHT22;13410;52.114;5.718;2023-08-06T15:09:30;20.90;99.90
25504;DHT22;13410;52.114;5.718;2023-08-06T15:12:09;20.80;99.90
25504;DHT22;13410;52.114;5.718;2023-08-06T15:14:39;20.90;99.90
25504;DHT22;13410;52.114;5.718;2023-08-06T15:17:10;20.90;99.90
25504;DHT22;13410;52.114;5.718;2023-08-06T15:19:49;21.00;99.90
25504;DHT22;13410;52.114;5.718;2023-08-06T15:22:52;20.70;99.90
25504;DHT22;13410;52.114;5.718;2023-08-06T15:25:20;20.50;99.90
25504;DHT22;13410;52.114;5.718;2023-08-06T15:30:28;20.70;99.90
25504;DHT22;13410;52.114;5.718;2023-08-06T15:32:54;20.50;99.90
25504;DHT22;13410;52.114;5.718;2023-08-06T15:35:21;20.60;99.90
25504;DHT22;13410;52.114;5.718;2023-08-06T15:37:46;20.50;99.90
25504;DHT22;13410;52.114;5.718;2023-08-06T15:40:12;20.20;99.90
25504;DHT22;13410;52.114;5.718;2023-08-06T15:42:38;19.80;99.90
25504;DHT22;13410;52.114;5.718;2023-08-06T15:45:04;19.50;99.90
25504;DHT22;13410;52.114;5.718;2023-08-06T15:47:29;18.70;99.90
25504;DHT22;13410;52.114;5.718;2023-08-06T15:49:55;18.40;99.90
25504;DHT22;13410;52.114;5.718;2023-08-06T15:52:20;18.60;99.90
25504;DHT22;13410;52.114;5.718;2023-08-06T15:54:46;18.80;99.90